sensor_id;sensor_type;location;lat;lon;timestamp;P1;durP1;ratioP1;P2;durP2;ratioP2
38513;SDS011;24282;48.400;10.808;2022-12-10T00:01:28;28.97;;;20.37;;
38513;SDS011;24282;48.400;10.808;2022-12-10T00:03:55;31.20;;;20.20;;
38513;SDS011;24282;48.400;10.808;2022-12-10T00:06:23;29.33;;;20.83;;
38513;SDS011;24282;48.400;10.808;2022-12-10T00:08:51;31.37;;;21.60;;
38513;SDS011;24282;48.400;10.808;2022-12-10T00:11:17;26.47;;;19.23;;
38513;SDS011;24282;48.400;10.808;2022-12-10T00:13:44;29.00;;;20.43;;
38513;SDS011;24282;48.400;10.808;2022-12-10T00:16:12;30.37;;;20.43;;
38513;SDS011;24282;48.400;10.808;2022-12-10T00:18:39;29.37;;;20.97;;
38513;SDS011;24282;48.400;10.808;2022-12-10T00:21:05;27.63;;;19.60;;
38513;SDS011;24282;48.400;10.808;2022-12-10T00:23:33;29.33;;;20.63;;
38513;SDS011;24282;48.400;10.808;2022-12-10T00:26:06;28.03;;;20.00;;
38513;SDS011;24282;48.400;10.808;2022-12-10T00:28:35;30.00;;;21.50;;
38513;SDS011;24282;48.400;10.808;2022-12-10T00:31:02;28.33;;;20.37;;
38513;SDS011;24282;48.400;10.808;2022-12-10T00:33:29;26.97;;;19.67;;
38513;SDS011;24282;48.400;10.808;2022-12-10T00:35:55;28.57;;;20.97;;
38513;SDS011;24282;48.400;10.808;2022-12-10T00:38:20;28.97;;;21.00;;
38513;SDS011;24282;48.400;10.808;2022-12-10T00:40:47;27.07;;;19.90;;
38513;SDS011;24282;48.400;10.808;2022-12-10T00:43:12;30.63;;;20.13;;
38513;SDS011;24282;48.400;10.808;2022-12-10T00:45:38;26.03;;;19.40;;
38513;SDS011;24282;48.400;10.808;2022-12-10T00:48:04;28.93;;;20.00;;
38513;SDS011;24282;48.400;10.808;2022-12-10T00:50:29;32.83;;;21.23;;
38513;SDS011;24282;48.400;10.808;2022-12-10T00:52:55;29.37;;;21.50;;
38513;SDS011;24282;48.400;10.808;2022-12-10T00:55:23;30.47;;;21.40;;
38513;SDS011;24282;48.400;10.808;2022-12-10T00:57:49;29.27;;;20.87;;
38513;SDS011;24282;48.400;10.808;2022-12-10T01:00:15;28.30;;;21.30;;
38513;SDS011;24282;48.400;10.808;2022-12-10T01:02:41;27.87;;;20.77;;
38513;SDS011;24282;48.400;10.808;2022-12-10T01:05:06;32.43;;;23.00;;
38513;SDS011;24282;48.400;10.808;2022-12-10T01:07:32;30.63;;;21.17;;
38513;SDS011;24282;48.400;10.808;2022-12-10T01:09:58;29.50;;;21.27;;
38513;SDS011;24282;48.400;10.808;2022-12-10T01:12:24;28.30;;;20.17;;
38513;SDS011;24282;48.400;10.808;2022-12-10T01:14:49;28.47;;;20.67;;
38513;SDS011;24282;48.400;10.808;2022-12-10T01:17:15;27.30;;;20.40;;
38513;SDS011;24282;48.400;10.808;2022-12-10T01:19:43;28.80;;;21.33;;
38513;SDS011;24282;48.400;10.808;2022-12-10T01:22:09;28.73;;;20.57;;
38513;SDS011;24282;48.400;10.808;2022-12-10T01:24:35;26.77;;;19.90;;
38513;SDS011;24282;48.400;10.808;2022-12-10T01:27:00;26.67;;;20.23;;
38513;SDS011;24282;48.400;10.808;2022-12-10T01:29:26;26.37;;;20.03;;
38513;SDS011;24282;48.400;10.808;2022-12-10T01:31:53;25.87;;;20.13;;
38513;SDS011;24282;48.400;10.808;2022-12-10T01:34:20;23.23;;;18.20;;
38513;SDS011;24282;48.400;10.808;2022-12-10T01:36:48;26.87;;;19.27;;
38513;SDS011;24282;48.400;10.808;2022-12-10T01:39:17;25.90;;;19.97;;
38513;SDS011;24282;48.400;10.808;2022-12-10T01:41:45;25.23;;;19.70;;
38513;SDS011;24282;48.400;10.808;2022-12-10T01:46:43;28.73;;;19.97;;
38513;SDS011;24282;48.400;10.808;2022-12-10T01:49:14;25.80;;;19.10;;
38513;SDS011;24282;48.400;10.808;2022-12-10T01:51:55;24.27;;;18.13;;
38513;SDS011;24282;48.400;10.808;2022-12-10T01:54:32;22.13;;;17.60;;
38513;SDS011;24282;48.400;10.808;2022-12-10T01:57:00;24.83;;;19.70;;
38513;SDS011;24282;48.400;10.808;2022-12-10T01:59:31;22.20;;;17.47;;
38513;SDS011;24282;48.400;10.808;2022-12-10T02:07:42;25.13;;;18.87;;
38513;SDS011;24282;48.400;10.808;2022-12-10T02:13:17;25.97;;;18.23;;
38513;SDS011;24282;48.400;10.808;2022-12-10T02:15:56;23.47;;;18.77;;
38513;SDS011;24282;48.400;10.808;2022-12-10T02:18:37;24.93;;;18.57;;
38513;SDS011;24282;48.400;10.808;2022-12-10T02:21:16;23.97;;;18.67;;
38513;SDS011;24282;48.400;10.808;2022-12-10T02:24:00;27.23;;;19.73;;
38513;SDS011;24282;48.400;10.808;2022-12-10T02:31:46;21.90;;;17.90;;
38513;SDS011;24282;48.400;10.808;2022-12-10T02:34:17;23.80;;;17.60;;
38513;SDS011;24282;48.400;10.808;2022-12-10T02:36:47;22.97;;;17.07;;
38513;SDS011;24282;48.400;10.808;2022-12-10T02:39:18;22.80;;;17.53;;
38513;SDS011;24282;48.400;10.808;2022-12-10T02:41:52;23.60;;;18.07;;
38513;SDS011;24282;48.400;10.808;2022-12-10T02:44:20;23.60;;;18.67;;
38513;SDS011;24282;48.400;10.808;2022-12-10T02:46:48;24.50;;;18.83;;
38513;SDS011;24282;48.400;10.808;2022-12-10T02:49:18;23.00;;;17.53;;
38513;SDS011;24282;48.400;10.808;2022-12-10T02:51:45;23.77;;;17.93;;
38513;SDS011;24282;48.400;10.808;2022-12-10T03:02:56;23.53;;;17.10;;
38513;SDS011;24282;48.400;10.808;2022-12-10T03:08:28;23.30;;;17.87;;
38513;SDS011;24282;48.400;10.808;2022-12-10T03:11:13;22.37;;;17.90;;
38513;SDS011;24282;48.400;10.808;2022-12-10T03:13:43;21.13;;;16.47;;
38513;SDS011;24282;48.400;10.808;2022-12-10T03:16:32;21.77;;;17.70;;
38513;SDS011;24282;48.400;10.808;2022-12-10T03:19:03;21.90;;;16.57;;
38513;SDS011;24282;48.400;10.808;2022-12-10T03:21:32;23.00;;;18.10;;
38513;SDS011;24282;48.400;10.808;2022-12-10T03:24:06;19.87;;;16.57;;
38513;SDS011;24282;48.400;10.808;2022-12-10T03:26:36;21.27;;;16.27;;
38513;SDS011;24282;48.400;10.808;2022-12-10T03:29:06;22.97;;;17.20;;
38513;SDS011;24282;48.400;10.808;2022-12-10T03:31:35;23.10;;;17.37;;
38513;SDS011;24282;48.400;10.808;2022-12-10T03:34:03;24.80;;;17.77;;
38513;SDS011;24282;48.400;10.808;2022-12-10T03:36:30;23.80;;;17.63;;
38513;SDS011;24282;48.400;10.808;2022-12-10T03:38:57;25.03;;;17.23;;
38513;SDS011;24282;48.400;10.808;2022-12-10T03:41:24;23.17;;;17.07;;
38513;SDS011;24282;48.400;10.808;2022-12-10T03:43:54;22.37;;;16.87;;
38513;SDS011;24282;48.400;10.808;2022-12-10T03:46:23;23.83;;;17.90;;
38513;SDS011;24282;48.400;10.808;2022-12-10T03:48:51;24.47;;;18.13;;
38513;SDS011;24282;48.400;10.808;2022-12-10T03:51:17;22.07;;;16.10;;
38513;SDS011;24282;48.400;10.808;2022-12-10T03:53:43;21.73;;;16.53;;
38513;SDS011;24282;48.400;10.808;2022-12-10T03:56:15;21.40;;;16.70;;
38513;SDS011;24282;48.400;10.808;2022-12-10T03:58:42;21.07;;;16.93;;
38513;SDS011;24282;48.400;10.808;2022-12-10T04:01:08;22.50;;;17.63;;
38513;SDS011;24282;48.400;10.808;2022-12-10T04:03:35;20.70;;;16.87;;
38513;SDS011;24282;48.400;10.808;2022-12-10T04:06:06;22.13;;;16.70;;
38513;SDS011;24282;48.400;10.808;2022-12-10T04:08:39;23.10;;;17.77;;
38513;SDS011;24282;48.400;10.808;2022-12-10T04:11:05;21.83;;;16.80;;
38513;SDS011;24282;48.400;10.808;2022-12-10T04:13:33;24.43;;;16.27;;
38513;SDS011;24282;48.400;10.808;2022-12-10T04:16:17;20.83;;;16.20;;
38513;SDS011;24282;48.400;10.808;2022-12-10T04:19:03;23.00;;;17.20;;
38513;SDS011;24282;48.400;10.808;2022-12-10T04:21:31;20.67;;;15.73;;
38513;SDS011;24282;48.400;10.808;2022-12-10T04:24:18;21.90;;;16.10;;
38513;SDS011;24282;48.400;10.808;2022-12-10T04:27:08;21.23;;;15.40;;
38513;SDS011;24282;48.400;10.808;2022-12-10T04:29:39;22.67;;;16.50;;
38513;SDS011;24282;48.400;10.808;2022-12-10T04:32:05;20.23;;;15.83;;
38513;SDS011;24282;48.400;10.808;2022-12-10T04:34:30;21.53;;;16.70;;
38513;SDS011;24282;48.400;10.808;2022-12-10T04:36:57;21.47;;;16.33;;
38513;SDS011;24282;48.400;10.808;2022-12-10T04:39:23;22.97;;;17.17;;
38513;SDS011;24282;48.400;10.808;2022-12-10T04:41:50;20.07;;;16.10;;
38513;SDS011;24282;48.400;10.808;2022-12-10T04:44:16;21.97;;;17.40;;
38513;SDS011;24282;48.400;10.808;2022-12-10T04:46:42;21.90;;;17.27;;
38513;SDS011;24282;48.400;10.808;2022-12-10T04:49:08;23.87;;;16.83;;
38513;SDS011;24282;48.400;10.808;2022-12-10T04:51:34;23.37;;;17.27;;
38513;SDS011;24282;48.400;10.808;2022-12-10T04:54:00;22.07;;;17.30;;
38513;SDS011;24282;48.400;10.808;2022-12-10T04:56:26;22.37;;;16.97;;
38513;SDS011;24282;48.400;10.808;2022-12-10T04:58:52;20.80;;;16.37;;
38513;SDS011;24282;48.400;10.808;2022-12-10T05:01:19;21.97;;;17.23;;
38513;SDS011;24282;48.400;10.808;2022-12-10T05:03:45;21.60;;;16.27;;
38513;SDS011;24282;48.400;10.808;2022-12-10T05:06:12;24.20;;;17.63;;
38513;SDS011;24282;48.400;10.808;2022-12-10T05:08:39;22.90;;;16.87;;
38513;SDS011;24282;48.400;10.808;2022-12-10T05:11:06;23.03;;;16.67;;
38513;SDS011;24282;48.400;10.808;2022-12-10T05:13:36;23.13;;;16.97;;
38513;SDS011;24282;48.400;10.808;2022-12-10T05:16:03;19.53;;;15.83;;
38513;SDS011;24282;48.400;10.808;2022-12-10T05:18:31;20.43;;;15.97;;
38513;SDS011;24282;48.400;10.808;2022-12-10T05:21:04;21.23;;;16.83;;
38513;SDS011;24282;48.400;10.808;2022-12-10T05:23:32;20.27;;;15.80;;
38513;SDS011;24282;48.400;10.808;2022-12-10T05:26:20;25.93;;;17.27;;
38513;SDS011;24282;48.400;10.808;2022-12-10T05:28:48;23.97;;;17.03;;
38513;SDS011;24282;48.400;10.808;2022-12-10T05:31:15;23.53;;;17.17;;
38513;SDS011;24282;48.400;10.808;2022-12-10T05:33:44;21.33;;;16.83;;
38513;SDS011;24282;48.400;10.808;2022-12-10T05:36:11;21.53;;;16.80;;
38513;SDS011;24282;48.400;10.808;2022-12-10T05:38:38;20.50;;;15.87;;
38513;SDS011;24282;48.400;10.808;2022-12-10T05:41:05;24.47;;;18.80;;
38513;SDS011;24282;48.400;10.808;2022-12-10T05:43:34;21.40;;;16.70;;
38513;SDS011;24282;48.400;10.808;2022-12-10T05:46:00;23.27;;;17.27;;
38513;SDS011;24282;48.400;10.808;2022-12-10T05:48:27;22.93;;;17.17;;
38513;SDS011;24282;48.400;10.808;2022-12-10T05:50:53;22.33;;;16.73;;
38513;SDS011;24282;48.400;10.808;2022-12-10T05:53:19;23.63;;;17.23;;
38513;SDS011;24282;48.400;10.808;2022-12-10T05:55:44;21.63;;;16.50;;
38513;SDS011;24282;48.400;10.808;2022-12-10T05:58:12;22.60;;;17.00;;
38513;SDS011;24282;48.400;10.808;2022-12-10T06:00:38;22.90;;;17.00;;
38513;SDS011;24282;48.400;10.808;2022-12-10T06:03:05;22.67;;;16.33;;
38513;SDS011;24282;48.400;10.808;2022-12-10T06:05:38;21.73;;;17.20;;
38513;SDS011;24282;48.400;10.808;2022-12-10T06:08:04;23.70;;;17.83;;
38513;SDS011;24282;48.400;10.808;2022-12-10T06:10:31;21.07;;;16.63;;
38513;SDS011;24282;48.400;10.808;2022-12-10T06:12:59;23.80;;;18.07;;
38513;SDS011;24282;48.400;10.808;2022-12-10T06:15:25;22.87;;;17.40;;
38513;SDS011;24282;48.400;10.808;2022-12-10T06:17:51;21.97;;;16.53;;
38513;SDS011;24282;48.400;10.808;2022-12-10T06:20:18;22.93;;;16.83;;
38513;SDS011;24282;48.400;10.808;2022-12-10T06:22:44;27.60;;;18.80;;
38513;SDS011;24282;48.400;10.808;2022-12-10T06:25:10;24.23;;;17.13;;
38513;SDS011;24282;48.400;10.808;2022-12-10T06:27:35;22.50;;;16.77;;
38513;SDS011;24282;48.400;10.808;2022-12-10T06:30:01;25.57;;;18.67;;
38513;SDS011;24282;48.400;10.808;2022-12-10T06:32:27;23.47;;;18.00;;
38513;SDS011;24282;48.400;10.808;2022-12-10T06:34:53;23.90;;;17.90;;
38513;SDS011;24282;48.400;10.808;2022-12-10T06:37:19;24.50;;;18.20;;
38513;SDS011;24282;48.400;10.808;2022-12-10T06:39:44;22.87;;;17.87;;
38513;SDS011;24282;48.400;10.808;2022-12-10T06:42:10;25.37;;;18.93;;
38513;SDS011;24282;48.400;10.808;2022-12-10T06:44:36;26.27;;;18.97;;
38513;SDS011;24282;48.400;10.808;2022-12-10T06:47:02;25.17;;;18.77;;
38513;SDS011;24282;48.400;10.808;2022-12-10T06:49:27;27.60;;;20.07;;
38513;SDS011;24282;48.400;10.808;2022-12-10T06:51:53;26.47;;;18.93;;
38513;SDS011;24282;48.400;10.808;2022-12-10T06:54:19;26.23;;;20.13;;
38513;SDS011;24282;48.400;10.808;2022-12-10T06:56:44;24.30;;;18.83;;
38513;SDS011;24282;48.400;10.808;2022-12-10T06:59:10;26.67;;;19.27;;
38513;SDS011;24282;48.400;10.808;2022-12-10T07:01:37;28.67;;;19.50;;
38513;SDS011;24282;48.400;10.808;2022-12-10T07:04:03;26.83;;;19.80;;
38513;SDS011;24282;48.400;10.808;2022-12-10T07:06:30;27.80;;;19.43;;
38513;SDS011;24282;48.400;10.808;2022-12-10T07:08:56;25.60;;;17.80;;
38513;SDS011;24282;48.400;10.808;2022-12-10T07:11:22;28.33;;;19.03;;
38513;SDS011;24282;48.400;10.808;2022-12-10T07:13:49;28.17;;;18.93;;
38513;SDS011;24282;48.400;10.808;2022-12-10T07:18:46;24.27;;;18.93;;
38513;SDS011;24282;48.400;10.808;2022-12-10T07:21:18;25.13;;;18.93;;
38513;SDS011;24282;48.400;10.808;2022-12-10T07:23:49;26.40;;;19.60;;
38513;SDS011;24282;48.400;10.808;2022-12-10T07:26:16;29.47;;;19.63;;
38513;SDS011;24282;48.400;10.808;2022-12-10T07:28:42;26.00;;;19.80;;
38513;SDS011;24282;48.400;10.808;2022-12-10T07:31:08;26.53;;;19.27;;
38513;SDS011;24282;48.400;10.808;2022-12-10T07:33:37;32.03;;;20.47;;
38513;SDS011;24282;48.400;10.808;2022-12-10T07:36:04;27.13;;;20.40;;
38513;SDS011;24282;48.400;10.808;2022-12-10T07:38:30;29.33;;;20.63;;
38513;SDS011;24282;48.400;10.808;2022-12-10T07:40:56;27.40;;;19.87;;
38513;SDS011;24282;48.400;10.808;2022-12-10T07:43:22;26.47;;;19.00;;
38513;SDS011;24282;48.400;10.808;2022-12-10T07:45:47;26.03;;;19.80;;
38513;SDS011;24282;48.400;10.808;2022-12-10T07:48:13;24.37;;;18.43;;
38513;SDS011;24282;48.400;10.808;2022-12-10T07:50:40;26.13;;;19.13;;
38513;SDS011;24282;48.400;10.808;2022-12-10T07:53:05;25.70;;;18.20;;
38513;SDS011;24282;48.400;10.808;2022-12-10T07:55:31;27.27;;;19.30;;
38513;SDS011;24282;48.400;10.808;2022-12-10T07:57:57;24.03;;;17.97;;
38513;SDS011;24282;48.400;10.808;2022-12-10T08:00:23;25.77;;;18.50;;
38513;SDS011;24282;48.400;10.808;2022-12-10T08:02:48;23.33;;;17.03;;
38513;SDS011;24282;48.400;10.808;2022-12-10T08:05:14;25.17;;;18.03;;
38513;SDS011;24282;48.400;10.808;2022-12-10T08:07:40;27.17;;;19.17;;
38513;SDS011;24282;48.400;10.808;2022-12-10T08:10:06;26.00;;;18.17;;
38513;SDS011;24282;48.400;10.808;2022-12-10T08:12:32;22.40;;;17.77;;
38513;SDS011;24282;48.400;10.808;2022-12-10T08:14:57;27.00;;;19.33;;
38513;SDS011;24282;48.400;10.808;2022-12-10T08:17:23;26.87;;;19.20;;
38513;SDS011;24282;48.400;10.808;2022-12-10T08:19:49;26.87;;;19.93;;
38513;SDS011;24282;48.400;10.808;2022-12-10T08:22:15;29.03;;;20.10;;
38513;SDS011;24282;48.400;10.808;2022-12-10T08:24:41;28.10;;;19.07;;
38513;SDS011;24282;48.400;10.808;2022-12-10T08:27:07;27.70;;;19.67;;
38513;SDS011;24282;48.400;10.808;2022-12-10T08:29:33;27.33;;;20.43;;
38513;SDS011;24282;48.400;10.808;2022-12-10T08:31:59;33.40;;;22.60;;
38513;SDS011;24282;48.400;10.808;2022-12-10T08:34:24;27.10;;;20.13;;
38513;SDS011;24282;48.400;10.808;2022-12-10T08:36:50;28.73;;;20.40;;
38513;SDS011;24282;48.400;10.808;2022-12-10T08:39:16;27.23;;;20.40;;
38513;SDS011;24282;48.400;10.808;2022-12-10T08:41:42;29.97;;;21.57;;
38513;SDS011;24282;48.400;10.808;2022-12-10T08:44:09;28.50;;;20.77;;
38513;SDS011;24282;48.400;10.808;2022-12-10T08:46:36;28.83;;;20.63;;
38513;SDS011;24282;48.400;10.808;2022-12-10T08:49:02;27.57;;;20.50;;
38513;SDS011;24282;48.400;10.808;2022-12-10T08:51:28;28.70;;;20.90;;
38513;SDS011;24282;48.400;10.808;2022-12-10T08:53:54;28.03;;;20.77;;
38513;SDS011;24282;48.400;10.808;2022-12-10T08:56:20;28.93;;;21.30;;
38513;SDS011;24282;48.400;10.808;2022-12-10T08:58:46;28.50;;;20.67;;
38513;SDS011;24282;48.400;10.808;2022-12-10T09:01:13;29.60;;;21.70;;
38513;SDS011;24282;48.400;10.808;2022-12-10T09:03:40;28.27;;;20.03;;
38513;SDS011;24282;48.400;10.808;2022-12-10T09:06:10;29.07;;;20.70;;
38513;SDS011;24282;48.400;10.808;2022-12-10T09:08:38;27.33;;;20.50;;
38513;SDS011;24282;48.400;10.808;2022-12-10T09:11:11;25.80;;;18.77;;
38513;SDS011;24282;48.400;10.808;2022-12-10T09:13:45;27.27;;;20.23;;
38513;SDS011;24282;48.400;10.808;2022-12-10T09:16:11;28.00;;;20.57;;
38513;SDS011;24282;48.400;10.808;2022-12-10T09:18:37;27.67;;;19.90;;
38513;SDS011;24282;48.400;10.808;2022-12-10T09:21:21;28.23;;;21.07;;
38513;SDS011;24282;48.400;10.808;2022-12-10T09:23:47;26.70;;;19.93;;
38513;SDS011;24282;48.400;10.808;2022-12-10T09:26:14;28.73;;;20.80;;
38513;SDS011;24282;48.400;10.808;2022-12-10T09:28:40;25.73;;;19.40;;
38513;SDS011;24282;48.400;10.808;2022-12-10T09:31:07;27.17;;;20.10;;
38513;SDS011;24282;48.400;10.808;2022-12-10T09:33:34;24.53;;;18.93;;
38513;SDS011;24282;48.400;10.808;2022-12-10T09:36:02;26.53;;;18.67;;
38513;SDS011;24282;48.400;10.808;2022-12-10T09:38:35;26.90;;;18.70;;
38513;SDS011;24282;48.400;10.808;2022-12-10T09:41:04;25.50;;;17.80;;
38513;SDS011;24282;48.400;10.808;2022-12-10T09:49:02;27.03;;;19.83;;
38513;SDS011;24282;48.400;10.808;2022-12-10T09:51:34;26.43;;;19.60;;
38513;SDS011;24282;48.400;10.808;2022-12-10T09:54:23;25.80;;;19.03;;
38513;SDS011;24282;48.400;10.808;2022-12-10T09:56:52;24.70;;;18.10;;
38513;SDS011;24282;48.400;10.808;2022-12-10T09:59:20;25.20;;;18.73;;
38513;SDS011;24282;48.400;10.808;2022-12-10T10:01:51;26.57;;;18.70;;
38513;SDS011;24282;48.400;10.808;2022-12-10T10:04:40;25.70;;;19.23;;
38513;SDS011;24282;48.400;10.808;2022-12-10T10:07:05;26.83;;;20.20;;
38513;SDS011;24282;48.400;10.808;2022-12-10T10:09:35;25.57;;;19.17;;
38513;SDS011;24282;48.400;10.808;2022-12-10T10:12:10;25.77;;;20.47;;
38513;SDS011;24282;48.400;10.808;2022-12-10T10:14:39;26.97;;;19.77;;
38513;SDS011;24282;48.400;10.808;2022-12-10T10:17:09;27.40;;;20.13;;
38513;SDS011;24282;48.400;10.808;2022-12-10T10:20:14;27.27;;;21.17;;
38513;SDS011;24282;48.400;10.808;2022-12-10T10:22:41;25.47;;;20.17;;
38513;SDS011;24282;48.400;10.808;2022-12-10T10:25:17;27.20;;;19.83;;
38513;SDS011;24282;48.400;10.808;2022-12-10T10:27:44;26.20;;;20.70;;
38513;SDS011;24282;48.400;10.808;2022-12-10T10:30:14;30.57;;;22.17;;
38513;SDS011;24282;48.400;10.808;2022-12-10T10:35:18;26.97;;;20.40;;
38513;SDS011;24282;48.400;10.808;2022-12-10T10:38:07;26.27;;;19.87;;
38513;SDS011;24282;48.400;10.808;2022-12-10T10:40:42;27.87;;;20.40;;
38513;SDS011;24282;48.400;10.808;2022-12-10T10:43:53;24.10;;;18.20;;
38513;SDS011;24282;48.400;10.808;2022-12-10T10:46:16;25.77;;;20.20;;
38513;SDS011;24282;48.400;10.808;2022-12-10T10:48:47;25.33;;;18.50;;
38513;SDS011;24282;48.400;10.808;2022-12-10T10:56:27;23.73;;;18.53;;
38513;SDS011;24282;48.400;10.808;2022-12-10T10:58:58;25.13;;;18.97;;
38513;SDS011;24282;48.400;10.808;2022-12-10T11:01:51;24.93;;;18.33;;
38513;SDS011;24282;48.400;10.808;2022-12-10T11:04:29;26.40;;;19.77;;
38513;SDS011;24282;48.400;10.808;2022-12-10T11:07:02;25.00;;;19.00;;
38513;SDS011;24282;48.400;10.808;2022-12-10T11:09:30;26.53;;;19.57;;
38513;SDS011;24282;48.400;10.808;2022-12-10T11:11:59;26.20;;;20.13;;
38513;SDS011;24282;48.400;10.808;2022-12-10T11:14:32;25.07;;;19.30;;
38513;SDS011;24282;48.400;10.808;2022-12-10T11:17:24;26.23;;;19.13;;
38513;SDS011;24282;48.400;10.808;2022-12-10T11:22:48;28.27;;;20.07;;
38513;SDS011;24282;48.400;10.808;2022-12-10T11:25:16;34.67;;;24.00;;
38513;SDS011;24282;48.400;10.808;2022-12-10T11:30:26;28.30;;;20.53;;
38513;SDS011;24282;48.400;10.808;2022-12-10T11:38:50;28.50;;;20.77;;
38513;SDS011;24282;48.400;10.808;2022-12-10T11:44:34;29.53;;;21.23;;
38513;SDS011;24282;48.400;10.808;2022-12-10T11:52:54;31.10;;;21.37;;
38513;SDS011;24282;48.400;10.808;2022-12-10T11:58:15;26.13;;;20.00;;
38513;SDS011;24282;48.400;10.808;2022-12-10T12:14:53;27.08;;;19.30;;
38513;SDS011;24282;48.400;10.808;2022-12-10T12:17:27;27.70;;;20.87;;
38513;SDS011;24282;48.400;10.808;2022-12-10T12:20:11;27.57;;;19.63;;
38513;SDS011;24282;48.400;10.808;2022-12-10T12:22:46;24.67;;;19.23;;
38513;SDS011;24282;48.400;10.808;2022-12-10T12:25:26;23.60;;;18.60;;
38513;SDS011;24282;48.400;10.808;2022-12-10T12:28:00;25.17;;;19.53;;
38513;SDS011;24282;48.400;10.808;2022-12-10T12:31:02;24.63;;;19.23;;
38513;SDS011;24282;48.400;10.808;2022-12-10T12:36:13;27.50;;;20.10;;
38513;SDS011;24282;48.400;10.808;2022-12-10T12:41:24;27.40;;;20.07;;
38513;SDS011;24282;48.400;10.808;2022-12-10T12:44:26;26.23;;;19.83;;
38513;SDS011;24282;48.400;10.808;2022-12-10T12:50:28;26.50;;;20.83;;
38513;SDS011;24282;48.400;10.808;2022-12-10T12:53:02;24.37;;;19.73;;
38513;SDS011;24282;48.400;10.808;2022-12-10T13:00:57;29.60;;;20.80;;
38513;SDS011;24282;48.400;10.808;2022-12-10T13:03:38;26.87;;;20.40;;
38513;SDS011;24282;48.400;10.808;2022-12-10T13:06:12;18.75;;;15.18;;
38513;SDS011;24282;48.400;10.808;2022-12-10T13:08:46;24.30;;;19.03;;
38513;SDS011;24282;48.400;10.808;2022-12-10T13:11:17;27.03;;;20.13;;
38513;SDS011;24282;48.400;10.808;2022-12-10T13:14:02;26.13;;;19.83;;
38513;SDS011;24282;48.400;10.808;2022-12-10T13:16:35;27.37;;;20.63;;
38513;SDS011;24282;48.400;10.808;2022-12-10T13:32:21;26.10;;;19.67;;
38513;SDS011;24282;48.400;10.808;2022-12-10T13:37:33;24.57;;;18.73;;
38513;SDS011;24282;48.400;10.808;2022-12-10T13:42:34;25.67;;;19.43;;
38513;SDS011;24282;48.400;10.808;2022-12-10T13:50:36;26.60;;;19.90;;
38513;SDS011;24282;48.400;10.808;2022-12-10T14:07:06;26.73;;;20.10;;
38513;SDS011;24282;48.400;10.808;2022-12-10T14:09:38;24.63;;;19.43;;
38513;SDS011;24282;48.400;10.808;2022-12-10T14:12:26;25.97;;;20.10;;
38513;SDS011;24282;48.400;10.808;2022-12-10T14:15:00;27.27;;;19.83;;
38513;SDS011;24282;48.400;10.808;2022-12-10T14:17:33;25.05;;;15.45;;
38513;SDS011;24282;48.400;10.808;2022-12-10T14:20:06;27.60;;;20.00;;
38513;SDS011;24282;48.400;10.808;2022-12-10T14:22:34;23.93;;;18.97;;
38513;SDS011;24282;48.400;10.808;2022-12-10T14:25:43;27.40;;;19.93;;
38513;SDS011;24282;48.400;10.808;2022-12-10T14:28:15;25.70;;;18.33;;
38513;SDS011;24282;48.400;10.808;2022-12-10T14:30:46;24.37;;;18.07;;
38513;SDS011;24282;48.400;10.808;2022-12-10T14:33:15;24.53;;;18.10;;
38513;SDS011;24282;48.400;10.808;2022-12-10T14:35:47;27.13;;;19.37;;
38513;SDS011;24282;48.400;10.808;2022-12-10T14:38:21;24.40;;;18.13;;
38513;SDS011;24282;48.400;10.808;2022-12-10T14:40:52;22.00;;;16.40;;
38513;SDS011;24282;48.400;10.808;2022-12-10T14:43:20;22.47;;;16.03;;
38513;SDS011;24282;48.400;10.808;2022-12-10T14:45:53;21.43;;;16.50;;
38513;SDS011;24282;48.400;10.808;2022-12-10T14:48:24;23.30;;;17.47;;
38513;SDS011;24282;48.400;10.808;2022-12-10T14:50:50;22.13;;;16.90;;
38513;SDS011;24282;48.400;10.808;2022-12-10T14:53:23;23.83;;;17.67;;
38513;SDS011;24282;48.400;10.808;2022-12-10T14:55:52;23.23;;;17.13;;
38513;SDS011;24282;48.400;10.808;2022-12-10T14:58:34;22.40;;;16.50;;
38513;SDS011;24282;48.400;10.808;2022-12-10T15:01:02;24.33;;;18.07;;
38513;SDS011;24282;48.400;10.808;2022-12-10T15:03:29;21.20;;;15.77;;
38513;SDS011;24282;48.400;10.808;2022-12-10T15:06:01;24.50;;;16.73;;
38513;SDS011;24282;48.400;10.808;2022-12-10T15:08:30;22.20;;;15.97;;
38513;SDS011;24282;48.400;10.808;2022-12-10T15:10:57;21.90;;;16.03;;
38513;SDS011;24282;48.400;10.808;2022-12-10T15:15:57;21.50;;;16.40;;
38513;SDS011;24282;48.400;10.808;2022-12-10T15:18:34;22.97;;;16.33;;
38513;SDS011;24282;48.400;10.808;2022-12-10T15:21:04;22.63;;;17.10;;
38513;SDS011;24282;48.400;10.808;2022-12-10T15:28:48;24.30;;;16.93;;
38513;SDS011;24282;48.400;10.808;2022-12-10T15:33:54;22.90;;;16.80;;
38513;SDS011;24282;48.400;10.808;2022-12-10T15:38:49;23.43;;;17.57;;
38513;SDS011;24282;48.400;10.808;2022-12-10T15:41:37;23.83;;;17.23;;
38513;SDS011;24282;48.400;10.808;2022-12-10T15:49:40;24.30;;;16.87;;
38513;SDS011;24282;48.400;10.808;2022-12-10T15:52:08;26.40;;;19.67;;
38513;SDS011;24282;48.400;10.808;2022-12-10T15:54:39;25.17;;;19.30;;
38513;SDS011;24282;48.400;10.808;2022-12-10T15:57:13;24.73;;;18.50;;
38513;SDS011;24282;48.400;10.808;2022-12-10T15:59:42;22.90;;;17.90;;
38513;SDS011;24282;48.400;10.808;2022-12-10T16:05:24;25.00;;;17.47;;
38513;SDS011;24282;48.400;10.808;2022-12-10T16:07:55;24.73;;;18.77;;
38513;SDS011;24282;48.400;10.808;2022-12-10T16:10:25;28.20;;;18.83;;
38513;SDS011;24282;48.400;10.808;2022-12-10T16:12:59;23.87;;;17.40;;
38513;SDS011;24282;48.400;10.808;2022-12-10T16:15:29;24.57;;;17.97;;
38513;SDS011;24282;48.400;10.808;2022-12-10T16:18:01;25.75;;;18.30;;
38513;SDS011;24282;48.400;10.808;2022-12-10T16:20:28;25.63;;;17.90;;
38513;SDS011;24282;48.400;10.808;2022-12-10T16:22:56;22.70;;;17.10;;
38513;SDS011;24282;48.400;10.808;2022-12-10T16:25:24;23.40;;;17.47;;
38513;SDS011;24282;48.400;10.808;2022-12-10T16:27:51;23.70;;;17.33;;
38513;SDS011;24282;48.400;10.808;2022-12-10T16:32:53;26.03;;;18.53;;
38513;SDS011;24282;48.400;10.808;2022-12-10T16:35:20;24.93;;;18.67;;
38513;SDS011;24282;48.400;10.808;2022-12-10T16:37:47;26.40;;;20.10;;
38513;SDS011;24282;48.400;10.808;2022-12-10T16:40:20;25.58;;;18.92;;
38513;SDS011;24282;48.400;10.808;2022-12-10T16:42:47;25.17;;;19.10;;
38513;SDS011;24282;48.400;10.808;2022-12-10T16:45:55;25.33;;;19.07;;
38513;SDS011;24282;48.400;10.808;2022-12-10T16:48:03;27.67;;;19.93;;
38513;SDS011;24282;48.400;10.808;2022-12-10T16:50:29;26.13;;;18.40;;
38513;SDS011;24282;48.400;10.808;2022-12-10T16:52:56;22.90;;;18.47;;
38513;SDS011;24282;48.400;10.808;2022-12-10T16:55:23;23.10;;;18.30;;
38513;SDS011;24282;48.400;10.808;2022-12-10T16:57:51;25.77;;;19.00;;
38513;SDS011;24282;48.400;10.808;2022-12-10T17:00:19;26.00;;;19.53;;
38513;SDS011;24282;48.400;10.808;2022-12-10T17:02:47;25.00;;;18.93;;